»·PEaware :: SWA591 KRNO-KSNA

SWA591 :: KRNO-KSNA

FLIGHT INFORMATION

Flight Status: Arrived
Operator:
Southwest Airlines
More flights by this operator :: More flights under this callsign
Pilot: Ryan B. (8502)
Aircraft: BOEING 737-400
(B734)
More flights by this aircraft type
Origin: KRNO Reno/Tahoe Intl
United States
Destination: KSNA John Wayne-Orange Co
United States
More flights between these airports :: More routes between these airports
Route: +ZEFFR6 DARBI FRA J7 REBRG OHSEA1
File this flight plan on PilotEdge
Remarks:
Altitude:
(Current/Filed)
29,000ft
Speed:
(Current/Filed)
446kts
Departed: 27-Oct-17 03:12 PM
Arrived: 27-Oct-17 04:18 PM
Distance/Time
Traveled:
361nm/1:06
Distance/Time
To Go:
Arrived

Flight Plot

Page will automatically refresh every two minutes.

Flight plan parsing failed; only flown route is shown


Map Options




Map Legend


Flown Route
Filed Route
Departure Airport
Arrival Airport
Navaid (VOR, NDB)
Fix

Horizontal Profiles

Position Reports

Time Latitude Longitude Heading Altitude Ground
Speed
27-Oct-17 14:52 39.506622 -119.773551 347 4414ft 0kts
27-Oct-17 14:53 39.506622 -119.773551 347 4414ft 0kts
27-Oct-17 14:54 39.506622 -119.773551 347 4414ft 0kts
27-Oct-17 14:55 39.506622 -119.773551 347 4414ft 0kts
27-Oct-17 14:56 39.506622 -119.773551 347 4414ft 0kts
27-Oct-17 14:57 39.506622 -119.773551 347 4414ft 0kts
27-Oct-17 14:58 39.506622 -119.773551 347 4414ft 0kts
27-Oct-17 14:59 39.506622 -119.773551 347 4414ft 0kts
27-Oct-17 15:00 39.506622 -119.773551 347 4414ft 0kts
27-Oct-17 15:01 39.506622 -119.773551 347 4414ft 0kts
27-Oct-17 15:02 39.506622 -119.773551 347 4414ft 0kts
27-Oct-17 15:03 39.506083 -119.773580 37 4414ft 2kts
27-Oct-17 15:04 39.505918 -119.774020 91 4414ft 0kts
27-Oct-17 15:05 39.505918 -119.774020 91 4414ft 0kts
27-Oct-17 15:06 39.505881 -119.772082 88 4412ft 2kts
27-Oct-17 15:07 39.510986 -119.771454 1 4415ft 26kts
27-Oct-17 15:08 39.514051 -119.770683 95 4418ft 8kts
27-Oct-17 15:09 39.514030 -119.770558 104 4418ft 0kts
27-Oct-17 15:10 39.514030 -119.770558 104 4418ft 0kts
27-Oct-17 15:11 39.514030 -119.770558 104 4418ft 0kts
27-Oct-17 15:12 39.514030 -119.770558 104 4418ft 0kts
27-Oct-17 15:13 39.514030 -119.770558 104 4418ft 0kts
27-Oct-17 15:14 39.514030 -119.770558 104 4418ft 0kts
27-Oct-17 15:15 39.514030 -119.770558 104 4418ft 0kts
27-Oct-17 15:16 39.512988 -119.769225 180 4416ft 8kts
27-Oct-17 15:17 39.488218 -119.769112 178 4528ft 178kts
27-Oct-17 15:18 39.431486 -119.768837 185 5956ft 235kts
27-Oct-17 15:19 39.367095 -119.769695 179 8944ft 234kts
27-Oct-17 15:20 39.300957 -119.769168 177 11186ft 255kts
27-Oct-17 15:21 39.222846 -119.766118 177 12824ft 309kts
27-Oct-17 15:22 39.130424 -119.762596 177 14414ft 357kts
27-Oct-17 15:23 39.025862 -119.758640 176 16169ft 388kts
27-Oct-17 15:24 38.916623 -119.754532 176 17828ft 403kts
27-Oct-17 15:25 38.808943 -119.750508 176 19385ft 416kts
27-Oct-17 15:26 38.692935 -119.746151 175 21012ft 425kts
27-Oct-17 15:27 38.573665 -119.741681 175 22532ft 434kts
27-Oct-17 15:28 38.452045 -119.737149 175 23923ft 443kts
27-Oct-17 15:29 38.328475 -119.732552 175 25203ft 451kts
27-Oct-17 15:30 38.203006 -119.720603 171 26398ft 457kts
27-Oct-17 15:31 38.075741 -119.705847 171 27497ft 464kts
27-Oct-17 15:32 37.948088 -119.691147 171 28936ft 459kts
27-Oct-17 15:33 37.822331 -119.676752 170 29127ft 454kts
27-Oct-17 15:34 37.696880 -119.662394 171 29133ft 455kts
27-Oct-17 15:35 37.571241 -119.648066 170 29147ft 455kts
27-Oct-17 15:36 37.445760 -119.633800 170 29040ft 454kts
27-Oct-17 15:37 37.320646 -119.619782 171 29008ft 454kts
27-Oct-17 15:38 37.195079 -119.605766 171 29342ft 459kts
27-Oct-17 15:39 37.068843 -119.595631 176 30513ft 458kts
27-Oct-17 15:40 36.941293 -119.598415 175 31028ft 459kts
27-Oct-17 15:41 36.815592 -119.600595 175 31008ft 457kts
27-Oct-17 15:42 36.688842 -119.602756 175 31009ft 457kts
27-Oct-17 15:43 36.562056 -119.604912 175 31008ft 457kts
27-Oct-17 15:44 36.435282 -119.607073 175 31010ft 457kts
27-Oct-17 15:45 36.308345 -119.609212 175 31010ft 457kts
27-Oct-17 15:46 36.181530 -119.611325 175 31010ft 457kts
27-Oct-17 15:47 36.054679 -119.613466 175 31010ft 457kts
27-Oct-17 15:48 35.927905 -119.624998 185 31006ft 464kts
27-Oct-17 15:49 35.802335 -119.651384 184 31002ft 463kts
27-Oct-17 15:50 35.675603 -119.677050 183 30993ft 462kts
27-Oct-17 15:51 35.562226 -119.628885 148 30999ft 440kts
27-Oct-17 15:52 35.451593 -119.566338 150 30992ft 440kts
27-Oct-17 15:53 35.340395 -119.505059 150 31001ft 440kts
27-Oct-17 15:54 35.229121 -119.443922 150 31001ft 440kts
27-Oct-17 15:55 35.117439 -119.382724 150 31001ft 440kts
27-Oct-17 15:56 35.006752 -119.322098 151 31001ft 440kts
27-Oct-17 15:57 34.895750 -119.261586 152 30995ft 439kts
27-Oct-17 15:58 34.786828 -119.202604 152 30986ft 438kts
27-Oct-17 15:59 34.677510 -119.138476 149 30955ft 437kts
27-Oct-17 16:00 34.573408 -119.072203 148 30957ft 437kts
27-Oct-17 16:01 34.466553 -119.003083 148 30882ft 437kts
27-Oct-17 16:02 34.361500 -118.933676 147 28276ft 423kts
27-Oct-17 16:03 34.260030 -118.866376 148 25788ft 412kts
27-Oct-17 16:04 34.155128 -118.816450 159 23408ft 404kts
27-Oct-17 16:05 34.050223 -118.775390 159 21168ft 392kts
27-Oct-17 16:06 33.947816 -118.735739 160 18992ft 381kts
27-Oct-17 16:07 33.849113 -118.697713 160 16883ft 371kts
27-Oct-17 16:08 33.752896 -118.660635 160 14865ft 359kts
27-Oct-17 16:09 33.658886 -118.627256 162 13103ft 340kts
27-Oct-17 16:10 33.584578 -118.584536 122 12496ft 292kts
27-Oct-17 16:11 33.541275 -118.502748 121 10740ft 290kts
27-Oct-17 16:12 33.520202 -118.414200 89 8973ft 281kts
27-Oct-17 16:13 33.520698 -118.324331 68 7167ft 274kts
27-Oct-17 16:14 33.547492 -118.240370 67 5516ft 269kts
27-Oct-17 16:15 33.575998 -118.162484 54 4998ft 245kts
27-Oct-17 16:16 33.614303 -118.093942 55 5016ft 246kts
27-Oct-17 16:17 33.649140 -118.031333 55 5004ft 223kts
27-Oct-17 16:18 33.690700 -117.979317 22 4292ft 222kts
27-Oct-17 16:19 33.743727 -117.950123 36 3156ft 202kts
27-Oct-17 16:20 33.755586 -117.892116 108 2248ft 183kts
27-Oct-17 16:21 33.723706 -117.848725 163 1895ft 173kts
27-Oct-17 16:22 33.684421 -117.863222 209 191ft 147kts
27-Oct-17 16:23 33.669064 -117.871414 106 56ft 17kts

Navigation Log

Ident Type
Flight plan parsing failed, navigation log unavailable